createdAt,value
2022-10-22T00:00:56.263Z,73.88
2022-10-22T00:09:30.907Z,73.78
2022-10-22T00:17:53.664Z,74.00
2022-10-22T00:26:16.559Z,73.82
2022-10-22T00:34:39.534Z,73.70
2022-10-22T00:43:02.311Z,73.89
2022-10-22T00:51:30.288Z,73.88
2022-10-22T00:59:55.782Z,73.95
2022-10-22T01:08:33.374Z,73.96
2022-10-22T01:17:02.776Z,73.97
2022-10-22T01:25:37.327Z,73.88
2022-10-22T01:34:01.278Z,73.88
2022-10-22T01:42:24.448Z,74.15
2022-10-22T01:51:02.275Z,74.11
2022-10-22T01:59:36.294Z,73.98
2022-10-22T02:08:16.154Z,74.17
2022-10-22T02:16:43.164Z,74.21
2022-10-22T02:25:07.062Z,74.36
2022-10-22T02:33:37.793Z,74.23
2022-10-22T02:42:02.718Z,74.20
2022-10-22T02:50:25.479Z,74.24
2022-10-22T02:58:48.630Z,74.22
2022-10-22T03:07:11.635Z,74.25
2022-10-22T03:15:34.637Z,74.52
2022-10-22T03:23:58.349Z,74.27
2022-10-22T03:32:21.187Z,74.51
2022-10-22T03:40:46.267Z,74.59
2022-10-22T03:49:09.256Z,74.47
2022-10-22T03:57:32.361Z,74.41
2022-10-22T04:06:01.385Z,74.61
2022-10-22T04:14:25.403Z,74.61
2022-10-22T04:22:48.348Z,74.49
2022-10-22T04:31:14.631Z,74.75
2022-10-22T04:39:37.476Z,74.85
2022-10-22T04:48:00.595Z,74.84
2022-10-22T04:56:33.308Z,74.83
2022-10-22T05:04:56.130Z,74.88
2022-10-22T05:13:18.938Z,74.96
2022-10-22T05:21:41.760Z,74.84
2022-10-22T05:30:05.274Z,74.93
2022-10-22T05:38:28.206Z,74.92
2022-10-22T05:46:51.035Z,74.86
2022-10-22T05:55:13.972Z,75.21
2022-10-22T06:03:36.909Z,75.19
2022-10-22T06:11:59.803Z,75.12
2022-10-22T06:20:22.601Z,75.24
2022-10-22T06:28:45.629Z,75.24
2022-10-22T06:37:10.013Z,75.34
2022-10-22T06:45:33.044Z,75.23
2022-10-22T06:53:56.845Z,75.56
2022-10-22T07:02:19.753Z,75.59
2022-10-22T07:10:45.712Z,75.65
2022-10-22T07:19:09.210Z,75.63
2022-10-22T07:27:32.283Z,75.63
2022-10-22T07:36:07.213Z,75.62
2022-10-22T07:44:30.340Z,75.64
2022-10-22T07:52:54.868Z,75.73
2022-10-22T08:01:20.424Z,75.93
2022-10-22T08:09:43.535Z,75.86
2022-10-22T08:18:07.158Z,76.06
2022-10-22T08:26:30.995Z,75.99
2022-10-22T08:34:54.900Z,76.21
2022-10-22T08:43:58.389Z,75.99
2022-10-22T08:52:22.063Z,76.18
2022-10-22T09:00:52.544Z,76.35
2022-10-22T09:09:18.438Z,76.19
2022-10-22T09:17:55.418Z,76.25
2022-10-22T09:26:18.410Z,76.38
2022-10-22T09:34:43.733Z,76.41
2022-10-22T09:43:06.761Z,76.48
2022-10-22T09:51:52.925Z,76.44
2022-10-22T10:00:20.510Z,76.43
2022-10-22T10:08:43.567Z,76.43
2022-10-22T10:17:37.518Z,76.31
2022-10-22T10:26:24.160Z,76.53
2022-10-22T10:34:58.066Z,76.54
2022-10-22T10:43:23.872Z,76.60
2022-10-22T10:51:55.462Z,76.29
2022-10-22T11:00:21.043Z,76.33
2022-10-22T11:08:58.154Z,76.63
2022-10-22T11:17:23.293Z,76.46
2022-10-22T11:25:48.251Z,76.45
2022-10-22T11:34:39.890Z,76.59
2022-10-22T11:43:06.680Z,76.52
2022-10-22T11:51:35.624Z,76.62
2022-10-22T12:00:00.853Z,76.58
2022-10-22T12:08:26.668Z,76.62
2022-10-22T12:17:05.906Z,76.54
2022-10-22T12:25:35.734Z,76.55
2022-10-22T12:33:59.574Z,76.76
2022-10-22T12:42:23.947Z,76.60
2022-10-22T12:50:54.448Z,76.55
2022-10-22T12:59:22.733Z,76.48
2022-10-22T13:08:10.191Z,76.71
2022-10-22T13:16:33.437Z,76.60
2022-10-22T13:25:00.030Z,76.56
2022-10-22T13:33:40.379Z,76.59
2022-10-22T13:42:03.304Z,76.42
2022-10-22T13:50:26.179Z,76.71
2022-10-22T13:58:49.810Z,76.63
2022-10-22T14:07:15.852Z,76.66
2022-10-22T14:15:39.934Z,76.66
2022-10-22T14:24:08.248Z,76.63
2022-10-22T14:32:33.694Z,76.68
2022-10-22T14:40:59.229Z,76.72
2022-10-22T14:49:22.232Z,76.74
2022-10-22T14:57:45.889Z,76.63
2022-10-22T15:06:08.918Z,76.65
2022-10-22T15:14:31.981Z,76.49
2022-10-22T15:22:54.780Z,76.54
2022-10-22T15:31:47.138Z,76.47
2022-10-22T15:40:10.422Z,76.55
2022-10-22T15:48:33.706Z,76.51
2022-10-22T15:56:57.700Z,76.65
2022-10-22T16:05:21.179Z,76.75
2022-10-22T16:13:44.027Z,76.69
2022-10-22T16:22:09.735Z,76.68
2022-10-22T16:30:34.705Z,76.60
2022-10-22T16:38:57.677Z,76.61
2022-10-22T16:47:22.034Z,76.44
2022-10-22T16:55:45.862Z,76.58
2022-10-22T17:04:10.080Z,76.62
2022-10-22T17:12:35.520Z,76.58
2022-10-22T17:20:59.078Z,76.67
2022-10-22T17:29:22.500Z,76.62
2022-10-22T17:37:45.414Z,76.60
2022-10-22T17:46:16.388Z,76.56
2022-10-22T17:54:41.866Z,76.56
2022-10-22T18:03:05.477Z,76.56
2022-10-22T18:11:28.403Z,76.87
2022-10-22T18:19:51.255Z,76.78
2022-10-22T18:28:15.981Z,76.77
2022-10-22T18:36:40.827Z,76.84
2022-10-22T18:45:04.227Z,76.82
2022-10-22T18:53:27.542Z,76.82
2022-10-22T19:01:52.710Z,76.93
2022-10-22T19:10:16.068Z,77.03
2022-10-22T19:18:39.764Z,76.75
2022-10-22T19:27:02.612Z,76.83
2022-10-22T19:35:25.492Z,76.97
2022-10-22T19:43:52.342Z,77.03
2022-10-22T19:52:15.445Z,76.92
2022-10-22T20:00:38.884Z,76.86
2022-10-22T20:09:01.876Z,77.09
2022-10-22T20:17:24.828Z,76.95
2022-10-22T20:25:48.650Z,77.13
2022-10-22T20:34:11.998Z,77.06
2022-10-22T20:42:35.578Z,77.10
2022-10-22T20:50:59.868Z,77.12
2022-10-22T20:59:24.544Z,77.24
2022-10-22T21:07:47.514Z,77.49
2022-10-22T21:16:13.027Z,77.46
2022-10-22T21:24:35.845Z,77.50
2022-10-22T21:32:58.645Z,77.40
2022-10-22T21:41:24.644Z,77.59
2022-10-22T21:49:47.683Z,77.39
2022-10-22T21:58:10.515Z,77.30
2022-10-22T22:06:35.708Z,77.53
2022-10-22T22:14:58.547Z,77.72
2022-10-22T22:23:21.424Z,77.63
2022-10-22T22:31:46.224Z,77.82
2022-10-22T22:40:10.298Z,77.65
2022-10-22T22:48:34.356Z,77.94
2022-10-22T22:56:57.272Z,77.80
2022-10-22T23:05:20.299Z,77.87
2022-10-22T23:13:43.923Z,77.80
2022-10-22T23:22:07.129Z,77.89
2022-10-22T23:30:30.021Z,77.99
2022-10-22T23:38:53.122Z,78.13
2022-10-22T23:47:15.937Z,78.07
2022-10-22T23:55:41.125Z,78.18
